Time;durP1;ratioP1;P1;durP2;ratioP2;P2;SDS_P1;SDS_P2;PMS_P1;PMS_P2;Temp;Humidity;BMP_temperature;BMP_pressure;BME280_temperature;BME280_humidity;BME280_pressure;Samples;Min_cycle;Max_cycle;Signal;HPM_P1;HPM_P2
2023/05/16 00:00:17;;;;;;;3.60;0.40;;;;;;;;;;4993564;28;20120;-50
2023/05/16 00:02:46;;;;;;;4.47;0.50;;;;;;;;;;4988748;28;20450;-50
2023/05/16 00:05:14;;;;;;;4.82;0.38;;;;;;;;;;4991183;28;20116;-48
2023/05/16 00:07:42;;;;;;;4.47;0.50;;;;;;;;;;5007464;28;20124;-49
2023/05/16 00:10:10;;;;;;;4.43;0.52;;;;;;;;;;4988734;28;20038;-52
2023/05/16 00:12:40;;;;;;;4.47;0.50;;;;;;;;;;4995411;28;20045;-49
2023/05/16 00:15:11;;;;;;;3.63;0.80;;;;;;;;;;4976219;28;20130;-49
2023/05/16 00:17:39;;;;;;;3.97;0.50;;;;;;;;;;4973089;28;20045;-51
2023/05/16 00:20:10;;;;;;;3.20;0.38;;;;;;;;;;4990514;28;20054;-53
2023/05/16 00:22:38;;;;;;;3.67;0.40;;;;;;;;;;4991027;28;20061;-53
2023/05/16 00:25:07;;;;;;;3.97;0.57;;;;;;;;;;4994592;28;20037;-51
2023/05/16 00:27:37;;;;;;;7.05;0.30;;;;;;;;;;4995450;28;20073;-53
2023/05/16 00:30:09;;;;;;;5.57;0.65;;;;;;;;;;4976253;28;20462;-54
2023/05/16 00:32:37;;;;;;;4.00;0.47;;;;;;;;;;4997306;28;20072;-52
2023/05/16 00:35:05;;;;;;;6.35;0.45;;;;;;;;;;4988347;28;20056;-53
2023/05/16 00:37:33;;;;;;;3.80;0.40;;;;;;;;;;4993224;28;20041;-53
2023/05/16 00:40:01;;;;;;;3.05;0.30;;;;;;;;;;4990766;28;20078;-53
2023/05/16 00:42:28;;;;;;;3.65;0.45;;;;;;;;;;4994783;28;20097;-50
2023/05/16 00:44:56;;;;;;;7.15;0.50;;;;;;;;;;4985784;28;20491;-52
2023/05/16 00:47:25;;;;;;;2.50;0.30;;;;;;;;;;4983165;28;20414;-53
2023/05/16 00:49:53;;;;;;;8.73;0.50;;;;;;;;;;5007058;28;20136;-51
2023/05/16 00:52:20;;;;;;;3.08;0.30;;;;;;;;;;4988861;28;20034;-52
2023/05/16 00:54:48;;;;;;;3.40;0.65;;;;;;;;;;4987648;28;20107;-51
2023/05/16 00:57:16;;;;;;;2.70;0.60;;;;;;;;;;4989687;28;20042;-48
2023/05/16 00:59:45;;;;;;;6.50;0.77;;;;;;;;;;4990978;28;20065;-53
2023/05/16 01:02:20;;;;;;;6.20;0.30;;;;;;;;;;4993547;28;20046;-49
2023/05/16 01:04:50;;;;;;;3.08;0.50;;;;;;;;;;4975613;28;20045;-52
2023/05/16 01:07:18;;;;;;;3.15;0.30;;;;;;;;;;4999292;28;20038;-51
2023/05/16 01:09:46;;;;;;;4.47;0.40;;;;;;;;;;4982885;28;20506;-52
2023/05/16 01:12:15;;;;;;;8.88;0.80;;;;;;;;;;4994952;28;20061;-52
2023/05/16 01:14:49;;;;;;;5.13;0.40;;;;;;;;;;4993903;28;20432;-51
2023/05/16 01:17:20;;;;;;;5.05;0.40;;;;;;;;;;4999536;28;20053;-52
2023/05/16 01:19:56;;;;;;;3.75;0.45;;;;;;;;;;4996184;28;20058;-51
2023/05/16 01:22:30;;;;;;;2.45;0.40;;;;;;;;;;4983898;28;20497;-50
2023/05/16 01:25:05;;;;;;;3.28;0.50;;;;;;;;;;4988665;28;20508;-52
2023/05/16 01:27:35;;;;;;;6.30;0.70;;;;;;;;;;4990815;28;20748;-53
2023/05/16 01:30:11;;;;;;;4.00;0.30;;;;;;;;;;5001610;28;20546;-51
2023/05/16 01:32:40;;;;;;;3.88;0.32;;;;;;;;;;4990803;28;20056;-52
2023/05/16 01:35:08;;;;;;;6.80;0.50;;;;;;;;;;4996411;28;20095;-53
2023/05/16 01:37:38;;;;;;;3.20;0.40;;;;;;;;;;4999649;28;20080;-55
2023/05/16 01:40:09;;;;;;;4.63;0.50;;;;;;;;;;4991536;28;20120;-51
2023/05/16 01:42:43;;;;;;;4.72;0.55;;;;;;;;;;5012059;28;20038;-51
2023/05/16 01:45:14;;;;;;;1.67;0.28;;;;;;;;;;4993856;28;20124;-51
2023/05/16 01:47:43;;;;;;;3.05;0.40;;;;;;;;;;5006723;28;20080;-51
2023/05/16 01:50:14;;;;;;;2.42;0.65;;;;;;;;;;4986514;28;20042;-54
2023/05/16 01:52:44;;;;;;;4.03;0.53;;;;;;;;;;5004815;28;20125;-50
2023/05/16 01:55:15;;;;;;;8.07;0.93;;;;;;;;;;4986230;28;20077;-51
2023/05/16 01:57:45;;;;;;;4.22;0.50;;;;;;;;;;4999386;28;20117;-48
2023/05/16 02:00:13;;;;;;;5.40;0.30;;;;;;;;;;4995124;28;20601;-49
2023/05/16 02:02:41;;;;;;;3.53;0.40;;;;;;;;;;5005183;28;20046;-49
2023/05/16 02:05:09;;;;;;;4.70;0.60;;;;;;;;;;4987861;28;20040;-48
2023/05/16 02:07:36;;;;;;;3.10;0.30;;;;;;;;;;4996110;28;20075;-52
2023/05/16 02:10:05;;;;;;;2.33;0.35;;;;;;;;;;4988592;28;20034;-55
2023/05/16 02:12:32;;;;;;;7.00;0.40;;;;;;;;;;4999621;28;20168;-51
2023/05/16 02:15:01;;;;;;;3.47;0.38;;;;;;;;;;4996225;28;20120;-47
2023/05/16 02:17:29;;;;;;;9.87;0.80;;;;;;;;;;4999661;28;20037;-52
2023/05/16 02:19:56;;;;;;;3.92;0.65;;;;;;;;;;5003725;28;20085;-52
2023/05/16 02:22:25;;;;;;;5.22;0.43;;;;;;;;;;4979179;28;21337;-49
2023/05/16 02:24:53;;;;;;;3.35;0.52;;;;;;;;;;4979504;28;20130;-51
2023/05/16 02:27:20;;;;;;;3.65;0.50;;;;;;;;;;4995230;28;20049;-49
2023/05/16 02:29:48;;;;;;;6.73;0.60;;;;;;;;;;5003252;28;20148;-50
2023/05/16 02:32:17;;;;;;;2.58;0.40;;;;;;;;;;4994463;28;20446;-49
2023/05/16 02:34:44;;;;;;;6.50;0.50;;;;;;;;;;4984919;28;20547;-51
2023/05/16 02:37:12;;;;;;;2.90;0.30;;;;;;;;;;4991031;28;20046;-50
2023/05/16 02:39:40;;;;;;;2.30;0.30;;;;;;;;;;4980877;28;20042;-49
2023/05/16 02:42:08;;;;;;;5.67;0.60;;;;;;;;;;5001884;28;20454;-50
2023/05/16 02:44:35;;;;;;;5.00;0.50;;;;;;;;;;4990387;28;20076;-53
2023/05/16 02:47:03;;;;;;;3.65;0.38;;;;;;;;;;5000918;28;20041;-49
2023/05/16 02:49:32;;;;;;;2.75;0.30;;;;;;;;;;4963580;28;20038;-50
2023/05/16 02:51:59;;;;;;;5.53;0.40;;;;;;;;;;5006744;28;21040;-49
2023/05/16 02:54:27;;;;;;;3.33;0.47;;;;;;;;;;4991836;28;20070;-48
2023/05/16 02:56:55;;;;;;;2.60;0.40;;;;;;;;;;4999066;28;20070;-52
2023/05/16 02:59:23;;;;;;;4.85;0.47;;;;;;;;;;4998320;28;20112;-50
2023/05/16 03:01:50;;;;;;;4.30;0.60;;;;;;;;;;5002024;28;20187;-51
2023/05/16 03:04:18;;;;;;;5.75;0.50;;;;;;;;;;4979771;28;20037;-52
2023/05/16 03:06:47;;;;;;;1.93;0.20;;;;;;;;;;4999141;28;20128;-48
2023/05/16 03:09:15;;;;;;;6.25;0.40;;;;;;;;;;4992114;28;20114;-49
2023/05/16 03:11:42;;;;;;;5.35;0.50;;;;;;;;;;4994248;28;20073;-48
2023/05/16 03:14:11;;;;;;;2.30;0.30;;;;;;;;;;4993705;28;20049;-52
2023/05/16 03:16:40;;;;;;;3.03;0.40;;;;;;;;;;5001415;28;20123;-49
2023/05/16 03:19:08;;;;;;;5.70;0.37;;;;;;;;;;4982502;28;20049;-51
2023/05/16 03:21:35;;;;;;;3.10;0.22;;;;;;;;;;4999953;28;20053;-49
2023/05/16 03:24:05;;;;;;;6.45;0.30;;;;;;;;;;4955406;28;20374;-48
2023/05/16 03:26:32;;;;;;;4.60;0.50;;;;;;;;;;5000692;28;20119;-52
2023/05/16 03:29:00;;;;;;;5.25;0.50;;;;;;;;;;5001494;28;20106;-48
2023/05/16 03:31:28;;;;;;;6.20;0.40;;;;;;;;;;4970739;28;20107;-50
2023/05/16 03:33:55;;;;;;;3.63;0.40;;;;;;;;;;4998543;28;20045;-53
2023/05/16 03:36:24;;;;;;;4.75;0.68;;;;;;;;;;4979072;28;20351;-49
2023/05/16 03:38:51;;;;;;;3.83;0.40;;;;;;;;;;4990145;28;20048;-47
2023/05/16 03:41:21;;;;;;;4.32;0.35;;;;;;;;;;4996103;28;20406;-48
2023/05/16 03:43:48;;;;;;;5.33;0.30;;;;;;;;;;4994265;28;20474;-50
2023/05/16 03:46:16;;;;;;;5.72;0.65;;;;;;;;;;4988358;28;20088;-49
2023/05/16 03:48:44;;;;;;;3.28;0.52;;;;;;;;;;4999666;28;20048;-51
2023/05/16 03:51:15;;;;;;;8.10;1.05;;;;;;;;;;5009474;28;20042;-50
2023/05/16 03:53:42;;;;;;;3.35;0.40;;;;;;;;;;4993831;28;20377;-51
2023/05/16 03:56:10;;;;;;;7.40;0.47;;;;;;;;;;4995542;28;20476;-48
2023/05/16 03:58:39;;;;;;;8.60;0.50;;;;;;;;;;4973848;28;20314;-50
2023/05/16 04:01:06;;;;;;;4.78;0.40;;;;;;;;;;4953766;28;20356;-53
2023/05/16 04:03:34;;;;;;;8.63;0.40;;;;;;;;;;5002570;28;20463;-51
2023/05/16 04:06:02;;;;;;;4.20;0.40;;;;;;;;;;4993183;28;20989;-47
2023/05/16 04:08:48;;;;;;;4.73;0.60;;;;;;;;;;4987997;28;20110;-49
2023/05/16 04:11:15;;;;;;;2.65;0.50;;;;;;;;;;5002467;28;20048;-49
2023/05/16 04:13:44;;;;;;;3.92;0.60;;;;;;;;;;4974302;28;20034;-48
2023/05/16 04:16:12;;;;;;;4.55;0.50;;;;;;;;;;4994760;28;20103;-49
2023/05/16 04:18:40;;;;;;;5.68;0.70;;;;;;;;;;4995800;28;20045;-50
2023/05/16 04:21:09;;;;;;;5.43;0.53;;;;;;;;;;4994987;28;20061;-49
2023/05/16 04:23:37;;;;;;;2.63;0.30;;;;;;;;;;4986013;28;20041;-50
2023/05/16 04:26:04;;;;;;;10.68;0.60;;;;;;;;;;4991935;28;20065;-50
2023/05/16 04:28:32;;;;;;;3.25;0.50;;;;;;;;;;5000374;28;20046;-50
2023/05/16 04:31:01;;;;;;;4.22;0.80;;;;;;;;;;4983261;28;20077;-50
2023/05/16 04:33:29;;;;;;;3.17;0.50;;;;;;;;;;5004218;28;20558;-51
2023/05/16 04:35:58;;;;;;;5.90;0.50;;;;;;;;;;4985601;28;20037;-51
2023/05/16 04:38:25;;;;;;;3.78;0.57;;;;;;;;;;4997547;28;20469;-49
2023/05/16 04:40:53;;;;;;;6.45;0.50;;;;;;;;;;4972579;28;20554;-51
2023/05/16 04:43:21;;;;;;;4.47;0.57;;;;;;;;;;4998420;28;20045;-51
2023/05/16 04:45:49;;;;;;;4.07;0.40;;;;;;;;;;4978395;28;20281;-50
2023/05/16 04:48:18;;;;;;;3.72;0.32;;;;;;;;;;4988648;28;20180;-51
2023/05/16 04:50:46;;;;;;;3.53;0.40;;;;;;;;;;4973300;28;20472;-49
2023/05/16 04:53:14;;;;;;;3.72;0.50;;;;;;;;;;4990274;28;20030;-50
2023/05/16 04:55:41;;;;;;;2.20;0.20;;;;;;;;;;4995001;28;20129;-48
2023/05/16 04:58:09;;;;;;;4.77;0.43;;;;;;;;;;5008984;28;20103;-48
2023/05/16 05:00:37;;;;;;;2.92;0.40;;;;;;;;;;4993475;28;20128;-47
2023/05/16 05:03:05;;;;;;;5.13;0.68;;;;;;;;;;5005465;28;20045;-52
2023/05/16 05:05:34;;;;;;;5.85;0.77;;;;;;;;;;4990148;28;20045;-50
2023/05/16 05:08:03;;;;;;;5.72;0.50;;;;;;;;;;4989020;28;20460;-52
2023/05/16 05:10:31;;;;;;;3.73;0.50;;;;;;;;;;4989942;28;20225;-50
2023/05/16 05:12:59;;;;;;;4.13;0.60;;;;;;;;;;4998491;28;20048;-52
2023/05/16 05:15:27;;;;;;;4.32;0.50;;;;;;;;;;4976472;28;20050;-48
2023/05/16 05:17:55;;;;;;;3.38;0.68;;;;;;;;;;4983400;28;20053;-51
2023/05/16 05:20:23;;;;;;;5.70;0.60;;;;;;;;;;4998955;28;20054;-51
2023/05/16 05:22:52;;;;;;;5.47;0.40;;;;;;;;;;4990606;28;20136;-50
2023/05/16 05:25:20;;;;;;;2.35;0.32;;;;;;;;;;4999817;28;20080;-48
2023/05/16 05:27:47;;;;;;;6.03;0.40;;;;;;;;;;4991996;28;21661;-50
2023/05/16 05:30:15;;;;;;;8.00;0.40;;;;;;;;;;4992097;28;20069;-51
2023/05/16 05:32:43;;;;;;;2.65;0.35;;;;;;;;;;4997171;28;20128;-49
2023/05/16 05:35:10;;;;;;;6.27;0.50;;;;;;;;;;4985859;28;20040;-48
2023/05/16 05:37:38;;;;;;;3.80;0.50;;;;;;;;;;4992725;28;20057;-48
2023/05/16 05:40:08;;;;;;;3.33;0.30;;;;;;;;;;4990544;28;20120;-48
2023/05/16 05:45:22;;;;;;;6.03;0.40;;;;;;;;;;4998489;28;20048;-50
2023/05/16 05:47:49;;;;;;;3.40;0.40;;;;;;;;;;4987112;28;20041;-53
2023/05/16 05:50:17;;;;;;;2.63;0.30;;;;;;;;;;4998837;28;20503;-51
2023/05/16 05:52:45;;;;;;;3.60;0.32;;;;;;;;;;4975026;28;20036;-50
2023/05/16 05:55:14;;;;;;;2.72;0.20;;;;;;;;;;4995241;28;20117;-49
2023/05/16 05:57:42;;;;;;;7.63;0.60;;;;;;;;;;4994235;28;20073;-49
2023/05/16 06:00:10;;;;;;;3.53;0.40;;;;;;;;;;4987321;28;20125;-49
2023/05/16 06:02:38;;;;;;;3.33;0.30;;;;;;;;;;4999246;28;20041;-49
2023/05/16 06:05:06;;;;;;;2.67;0.30;;;;;;;;;;4997368;28;20042;-52
2023/05/16 06:07:34;;;;;;;3.25;0.32;;;;;;;;;;4989121;28;20388;-52
2023/05/16 06:10:04;;;;;;;4.50;0.55;;;;;;;;;;4994149;28;21107;-50
2023/05/16 06:12:33;;;;;;;2.97;0.30;;;;;;;;;;4991596;28;20037;-51
2023/05/16 06:15:00;;;;;;;2.85;0.40;;;;;;;;;;4989844;28;20044;-49
2023/05/16 06:17:28;;;;;;;4.13;0.50;;;;;;;;;;4990547;28;21002;-50
2023/05/16 06:19:56;;;;;;;2.50;0.40;;;;;;;;;;4985993;28;20050;-52
2023/05/16 06:22:24;;;;;;;2.25;0.35;;;;;;;;;;4996558;28;20049;-50
2023/05/16 06:24:51;;;;;;;4.30;0.30;;;;;;;;;;4980101;28;20053;-53
2023/05/16 06:27:19;;;;;;;2.92;0.20;;;;;;;;;;5009476;28;20038;-49
2023/05/16 06:29:48;;;;;;;2.85;0.20;;;;;;;;;;4979862;28;20121;-54
2023/05/16 06:32:16;;;;;;;5.75;0.32;;;;;;;;;;4996089;28;20057;-51
2023/05/16 06:34:43;;;;;;;4.78;0.30;;;;;;;;;;4997432;28;20609;-54
2023/05/16 06:37:11;;;;;;;5.27;0.30;;;;;;;;;;4990408;28;20131;-50
2023/05/16 06:39:38;;;;;;;3.25;0.30;;;;;;;;;;4999200;28;20092;-52
2023/05/16 06:42:06;;;;;;;3.08;0.30;;;;;;;;;;4988533;28;20099;-48
2023/05/16 06:44:35;;;;;;;5.78;0.40;;;;;;;;;;4987043;28;20104;-53
2023/05/16 06:47:05;;;;;;;6.90;0.70;;;;;;;;;;4987831;28;20041;-50
2023/05/16 06:49:32;;;;;;;2.73;0.50;;;;;;;;;;4989553;28;20046;-53
2023/05/16 06:52:00;;;;;;;1.95;0.20;;;;;;;;;;4992582;28;20041;-51
2023/05/16 06:54:28;;;;;;;4.50;0.40;;;;;;;;;;4986215;28;20045;-51
2023/05/16 06:56:56;;;;;;;4.38;0.32;;;;;;;;;;4992324;28;20046;-52
2023/05/16 06:59:24;;;;;;;3.97;0.50;;;;;;;;;;4983693;28;20048;-51
2023/05/16 07:01:54;;;;;;;4.77;0.40;;;;;;;;;;4998757;28;20131;-51
2023/05/16 07:04:24;;;;;;;3.17;0.30;;;;;;;;;;4982615;28;20046;-51
2023/05/16 07:06:52;;;;;;;6.95;0.50;;;;;;;;;;4998802;28;20257;-53
2023/05/16 07:09:20;;;;;;;4.63;0.35;;;;;;;;;;5005044;28;20095;-50
2023/05/16 07:11:48;;;;;;;2.35;0.30;;;;;;;;;;4983286;28;20550;-50
2023/05/16 07:14:16;;;;;;;3.27;0.37;;;;;;;;;;4989251;28;20042;-54
2023/05/16 07:16:44;;;;;;;4.18;0.40;;;;;;;;;;4986062;28;20048;-52
2023/05/16 07:19:12;;;;;;;3.22;0.40;;;;;;;;;;4994584;28;20060;-50
2023/05/16 07:21:41;;;;;;;3.63;0.57;;;;;;;;;;4983206;28;20069;-53
2023/05/16 07:24:09;;;;;;;3.03;0.32;;;;;;;;;;5004680;28;20095;-49
2023/05/16 07:26:38;;;;;;;2.67;0.47;;;;;;;;;;4989661;28;20417;-48
2023/05/16 07:29:05;;;;;;;3.60;0.30;;;;;;;;;;4985271;28;20088;-50
2023/05/16 07:31:33;;;;;;;2.47;0.28;;;;;;;;;;4997976;28;20174;-52
2023/05/16 07:34:01;;;;;;;4.03;0.30;;;;;;;;;;4993357;28;20129;-52
2023/05/16 07:36:28;;;;;;;8.32;0.63;;;;;;;;;;4987861;28;20088;-55
2023/05/16 07:39:00;;;;;;;3.27;0.40;;;;;;;;;;4985436;28;20042;-56
2023/05/16 07:41:27;;;;;;;2.50;0.40;;;;;;;;;;4996807;28;20046;-54
2023/05/16 07:43:55;;;;;;;3.70;0.30;;;;;;;;;;4962956;28;20042;-56
2023/05/16 07:46:23;;;;;;;7.43;0.40;;;;;;;;;;4992843;28;20055;-56
2023/05/16 07:48:52;;;;;;;4.43;0.35;;;;;;;;;;4976372;28;20033;-56
2023/05/16 07:51:19;;;;;;;2.17;0.20;;;;;;;;;;5005252;28;20052;-56
2023/05/16 07:53:47;;;;;;;4.45;0.38;;;;;;;;;;4992743;28;20514;-57
2023/05/16 07:56:17;;;;;;;4.30;0.52;;;;;;;;;;4993775;28;20104;-56
2023/05/16 07:58:47;;;;;;;4.25;0.30;;;;;;;;;;4982335;28;20045;-53
2023/05/16 08:01:15;;;;;;;3.95;0.75;;;;;;;;;;5005428;28;20483;-54
2023/05/16 08:03:43;;;;;;;5.50;0.60;;;;;;;;;;4994904;28;20042;-53
2023/05/16 08:06:11;;;;;;;7.03;0.40;;;;;;;;;;4992374;28;20041;-55
2023/05/16 08:08:39;;;;;;;3.75;0.30;;;;;;;;;;4992827;28;20128;-53
2023/05/16 08:11:06;;;;;;;5.57;0.50;;;;;;;;;;4989141;28;20363;-55
2023/05/16 08:13:37;;;;;;;4.10;0.55;;;;;;;;;;4981088;28;20041;-52
2023/05/16 08:16:06;;;;;;;5.10;0.60;;;;;;;;;;4998916;28;20042;-56
2023/05/16 08:18:37;;;;;;;2.40;0.40;;;;;;;;;;5003278;28;20465;-55
2023/05/16 08:21:05;;;;;;;3.53;0.52;;;;;;;;;;4987861;28;20049;-55
2023/05/16 08:23:32;;;;;;;3.60;0.40;;;;;;;;;;4994743;28;20437;-55
2023/05/16 08:26:00;;;;;;;8.48;0.70;;;;;;;;;;4984766;28;20403;-55
2023/05/16 08:28:28;;;;;;;8.30;0.50;;;;;;;;;;4972860;28;20053;-56
2023/05/16 08:30:58;;;;;;;5.35;0.85;;;;;;;;;;4981696;28;20412;-56
2023/05/16 08:33:26;;;;;;;6.80;0.60;;;;;;;;;;4986401;28;20025;-56
2023/05/16 08:35:54;;;;;;;6.10;0.68;;;;;;;;;;4979469;28;20052;-54
2023/05/16 08:38:22;;;;;;;5.78;0.70;;;;;;;;;;4988509;28;20033;-55
2023/05/16 08:40:51;;;;;;;6.63;0.63;;;;;;;;;;4989993;28;20507;-56
2023/05/16 08:43:18;;;;;;;3.17;0.52;;;;;;;;;;4993679;28;20037;-54
2023/05/16 08:45:48;;;;;;;6.18;0.80;;;;;;;;;;4988204;28;20050;-55
2023/05/16 08:48:20;;;;;;;4.70;0.60;;;;;;;;;;4996630;28;20068;-51
2023/05/16 08:50:49;;;;;;;6.05;0.75;;;;;;;;;;4972416;28;20042;-54
2023/05/16 08:53:21;;;;;;;7.97;0.60;;;;;;;;;;4991961;28;20042;-55
2023/05/16 08:55:49;;;;;;;6.15;1.23;;;;;;;;;;5000821;28;20038;-54
2023/05/16 08:58:28;;;;;;;5.13;0.77;;;;;;;;;;4993464;28;20053;-51
2023/05/16 09:00:56;;;;;;;7.78;0.80;;;;;;;;;;5007848;28;20692;-53
2023/05/16 09:03:30;;;;;;;5.72;0.65;;;;;;;;;;4991509;28;20798;-55
2023/05/16 09:05:58;;;;;;;6.07;0.67;;;;;;;;;;4989998;28;20506;-52
2023/05/16 09:08:26;;;;;;;4.38;0.40;;;;;;;;;;5000147;28;20726;-50
2023/05/16 09:10:53;;;;;;;3.70;0.80;;;;;;;;;;4995374;28;20050;-50
2023/05/16 09:13:21;;;;;;;4.15;0.60;;;;;;;;;;4985831;28;20037;-49
2023/05/16 09:16:04;;;;;;;6.63;1.00;;;;;;;;;;4984410;28;20193;-53
2023/05/16 09:18:34;;;;;;;5.17;0.67;;;;;;;;;;4976894;28;20038;-54
2023/05/16 09:21:05;;;;;;;4.28;0.63;;;;;;;;;;5005208;28;20050;-54
2023/05/16 09:23:34;;;;;;;5.63;0.63;;;;;;;;;;4989164;28;20108;-53
2023/05/16 09:26:06;;;;;;;4.30;1.08;;;;;;;;;;4993580;28;20043;-55
2023/05/16 09:28:34;;;;;;;3.20;0.60;;;;;;;;;;4994830;28;20049;-51
2023/05/16 09:31:02;;;;;;;5.13;0.67;;;;;;;;;;4989932;28;20606;-52
2023/05/16 09:33:30;;;;;;;2.92;0.60;;;;;;;;;;4992640;28;20502;-51
2023/05/16 09:36:00;;;;;;;4.72;0.80;;;;;;;;;;4992786;28;20487;-55
2023/05/16 09:38:28;;;;;;;5.55;0.85;;;;;;;;;;4982015;28;20417;-52
2023/05/16 09:40:56;;;;;;;7.65;0.63;;;;;;;;;;4996522;28;20037;-52
2023/05/16 09:43:26;;;;;;;5.63;0.60;;;;;;;;;;4993239;28;20052;-52
2023/05/16 09:45:54;;;;;;;4.88;0.65;;;;;;;;;;4974308;28;20042;-53
2023/05/16 09:48:22;;;;;;;5.03;0.85;;;;;;;;;;4994630;28;20783;-51
2023/05/16 09:50:51;;;;;;;4.05;1.05;;;;;;;;;;4993662;28;20037;-48
2023/05/16 09:53:27;;;;;;;4.60;0.80;;;;;;;;;;4967737;28;20037;-51
2023/05/16 09:56:02;;;;;;;4.67;0.80;;;;;;;;;;4997969;28;20128;-53
2023/05/16 09:58:30;;;;;;;6.80;1.00;;;;;;;;;;4968452;28;20057;-53
2023/05/16 10:00:58;;;;;;;4.57;0.52;;;;;;;;;;4992628;28;20038;-49
2023/05/16 10:03:27;;;;;;;4.75;0.68;;;;;;;;;;4990067;28;21333;-49
2023/05/16 10:05:56;;;;;;;4.90;0.60;;;;;;;;;;4978605;28;20049;-50
2023/05/16 10:08:24;;;;;;;5.37;0.80;;;;;;;;;;4983718;28;20042;-53
2023/05/16 10:10:54;;;;;;;2.70;0.43;;;;;;;;;;4989422;28;20045;-53
2023/05/16 10:13:23;;;;;;;5.97;0.85;;;;;;;;;;4985116;28;20068;-51
2023/05/16 10:15:51;;;;;;;6.63;1.10;;;;;;;;;;4984433;28;20056;-48
2023/05/16 10:18:21;;;;;;;4.68;0.82;;;;;;;;;;4983288;28;20060;-51
2023/05/16 10:20:51;;;;;;;4.87;0.93;;;;;;;;;;4992815;28;20065;-47
2023/05/16 10:23:20;;;;;;;5.72;0.93;;;;;;;;;;4981257;28;20415;-52
2023/05/16 10:25:48;;;;;;;5.10;1.40;;;;;;;;;;4981934;28;20061;-53
2023/05/16 10:28:17;;;;;;;4.53;0.95;;;;;;;;;;4987484;28;20045;-51
2023/05/16 10:30:46;;;;;;;3.92;0.65;;;;;;;;;;4989297;28;20053;-54
2023/05/16 10:33:14;;;;;;;5.13;1.30;;;;;;;;;;4987594;28;21068;-54
2023/05/16 10:35:45;;;;;;;5.35;0.90;;;;;;;;;;4958245;28;20041;-53
2023/05/16 10:38:16;;;;;;;7.00;1.48;;;;;;;;;;4990454;28;20042;-52
2023/05/16 10:40:44;;;;;;;5.65;1.17;;;;;;;;;;4984040;28;20104;-52
2023/05/16 10:43:22;;;;;;;6.30;1.60;;;;;;;;;;4984312;28;20037;-54
2023/05/16 10:45:55;;;;;;;6.10;1.00;;;;;;;;;;4988125;28;20052;-53
2023/05/16 10:48:29;;;;;;;6.47;1.30;;;;;;;;;;4977351;28;20132;-49
2023/05/16 10:50:58;;;;;;;6.30;1.23;;;;;;;;;;4989759;28;20057;-54
2023/05/16 10:53:30;;;;;;;7.07;1.45;;;;;;;;;;4982771;28;20037;-55
2023/05/16 10:56:08;;;;;;;6.25;1.45;;;;;;;;;;4986513;28;21618;-54
2023/05/16 10:58:43;;;;;;;6.03;1.37;;;;;;;;;;4984473;28;20480;-55
2023/05/16 11:01:19;;;;;;;4.50;1.23;;;;;;;;;;4989890;28;20087;-53
2023/05/16 11:04:04;;;;;;;5.45;0.90;;;;;;;;;;4982598;28;20049;-53
2023/05/16 11:06:34;;;;;;;6.15;1.15;;;;;;;;;;4965344;28;20053;-56
2023/05/16 11:09:05;;;;;;;9.55;1.30;;;;;;;;;;4995361;28;20064;-54
2023/05/16 11:11:41;;;;;;;8.50;1.50;;;;;;;;;;4980183;28;20033;-52
2023/05/16 11:14:09;;;;;;;4.35;1.00;;;;;;;;;;4989903;28;20041;-51
2023/05/16 11:16:39;;;;;;;8.20;1.30;;;;;;;;;;4976773;28;20037;-54
2023/05/16 11:19:07;;;;;;;4.95;0.93;;;;;;;;;;4989714;28;20578;-51
2023/05/16 11:21:50;;;;;;;5.82;1.30;;;;;;;;;;4981562;28;20590;-53
2023/05/16 11:24:31;;;;;;;4.33;0.90;;;;;;;;;;4971179;28;20120;-55
2023/05/16 11:26:59;;;;;;;5.20;1.15;;;;;;;;;;4983270;28;20038;-52
2023/05/16 11:29:28;;;;;;;6.63;1.45;;;;;;;;;;4982606;28;20042;-54
2023/05/16 11:31:58;;;;;;;3.90;1.00;;;;;;;;;;4986026;28;20053;-54
2023/05/16 11:34:26;;;;;;;5.25;0.90;;;;;;;;;;4988023;28;20792;-54
2023/05/16 11:36:55;;;;;;;4.37;1.17;;;;;;;;;;4964794;28;20045;-53
2023/05/16 11:39:23;;;;;;;6.70;0.93;;;;;;;;;;4996337;28;20041;-51
2023/05/16 11:41:51;;;;;;;4.72;1.20;;;;;;;;;;4977420;28;20046;-49
2023/05/16 11:44:19;;;;;;;5.65;1.27;;;;;;;;;;4993651;28;20119;-53
2023/05/16 11:46:48;;;;;;;6.78;0.90;;;;;;;;;;4974375;28;20156;-53
2023/05/16 11:49:17;;;;;;;6.10;0.80;;;;;;;;;;4991597;28;20525;-54
2023/05/16 11:51:48;;;;;;;5.15;0.70;;;;;;;;;;4982668;28;20052;-55
2023/05/16 11:54:18;;;;;;;6.47;0.80;;;;;;;;;;4990577;28;20060;-50
2023/05/16 11:56:46;;;;;;;4.43;1.00;;;;;;;;;;4972550;28;20045;-55
2023/05/16 11:59:14;;;;;;;3.88;0.88;;;;;;;;;;4986638;28;20072;-54
2023/05/16 12:01:42;;;;;;;6.90;1.13;;;;;;;;;;4977960;28;20064;-54
2023/05/16 12:04:11;;;;;;;4.25;1.13;;;;;;;;;;4991837;28;20045;-48
2023/05/16 12:06:42;;;;;;;4.63;1.08;;;;;;;;;;4970138;28;21294;-51
2023/05/16 12:09:12;;;;;;;5.97;0.90;;;;;;;;;;4992940;28;20044;-52
2023/05/16 12:11:44;;;;;;;5.03;1.00;;;;;;;;;;4982750;28;20095;-52
2023/05/16 12:14:13;;;;;;;5.53;1.10;;;;;;;;;;4991636;28;20041;-53
2023/05/16 12:16:59;;;;;;;7.80;1.08;;;;;;;;;;4983425;28;20037;-53
2023/05/16 12:19:27;;;;;;;4.70;0.90;;;;;;;;;;4969371;28;20065;-55
2023/05/16 12:21:56;;;;;;;5.88;1.00;;;;;;;;;;4983861;28;20119;-53
2023/05/16 12:24:29;;;;;;;5.28;1.15;;;;;;;;;;4975743;28;20047;-54
2023/05/16 12:26:57;;;;;;;3.90;0.77;;;;;;;;;;4980048;28;20046;-55
2023/05/16 12:29:26;;;;;;;4.97;1.10;;;;;;;;;;4973296;28;20038;-54
2023/05/16 12:31:54;;;;;;;8.18;1.23;;;;;;;;;;4972684;28;20041;-54
2023/05/16 12:34:23;;;;;;;6.85;1.30;;;;;;;;;;4987632;28;20112;-55
2023/05/16 12:36:51;;;;;;;7.95;1.33;;;;;;;;;;4966971;28;20077;-55
2023/05/16 12:39:21;;;;;;;3.40;0.70;;;;;;;;;;4985472;28;20049;-54
2023/05/16 12:41:49;;;;;;;5.65;1.30;;;;;;;;;;4975948;28;20661;-54
2023/05/16 12:44:18;;;;;;;5.70;1.33;;;;;;;;;;4977873;28;20120;-52
2023/05/16 12:46:48;;;;;;;5.78;1.15;;;;;;;;;;4965858;28;20353;-48
2023/05/16 12:49:19;;;;;;;6.38;1.55;;;;;;;;;;4976082;28;20584;-50
2023/05/16 12:51:51;;;;;;;7.20;1.30;;;;;;;;;;4984885;28;20053;-52
2023/05/16 12:54:21;;;;;;;6.55;1.45;;;;;;;;;;4975719;28;20046;-50
2023/05/16 12:56:49;;;;;;;7.38;1.35;;;;;;;;;;4964147;28;20052;-51
2023/05/16 12:59:18;;;;;;;5.03;1.00;;;;;;;;;;4978752;28;20073;-55
2023/05/16 13:01:47;;;;;;;7.00;1.38;;;;;;;;;;4972256;28;20211;-57
2023/05/16 13:04:17;;;;;;;6.10;1.30;;;;;;;;;;4968153;28;20037;-52
2023/05/16 13:06:46;;;;;;;5.88;1.05;;;;;;;;;;4971516;28;20063;-56
2023/05/16 13:09:18;;;;;;;6.97;1.67;;;;;;;;;;4995434;28;20046;-57
2023/05/16 13:11:47;;;;;;;5.03;1.20;;;;;;;;;;4966262;28;20626;-57
2023/05/16 13:14:16;;;;;;;5.10;1.38;;;;;;;;;;4993227;28;20037;-55
2023/05/16 13:16:44;;;;;;;8.37;1.60;;;;;;;;;;4972262;28;20065;-54
2023/05/16 13:19:12;;;;;;;5.93;1.10;;;;;;;;;;4987110;28;20048;-58
2023/05/16 13:21:40;;;;;;;4.97;1.30;;;;;;;;;;4976449;28;20075;-58
2023/05/16 13:24:12;;;;;;;5.22;1.42;;;;;;;;;;4987283;28;21218;-57
2023/05/16 13:26:40;;;;;;;9.85;1.92;;;;;;;;;;4981482;28;20042;-58
2023/05/16 13:29:10;;;;;;;8.07;2.10;;;;;;;;;;4957372;28;20589;-57
2023/05/16 13:31:38;;;;;;;9.65;1.60;;;;;;;;;;4983396;28;20684;-57
2023/05/16 13:34:06;;;;;;;5.13;1.60;;;;;;;;;;4992359;28;20041;-57
2023/05/16 13:36:35;;;;;;;7.97;1.55;;;;;;;;;;4977009;28;20092;-55
2023/05/16 13:39:20;;;;;;;4.68;1.30;;;;;;;;;;4989845;28;21041;-56
2023/05/16 13:41:49;;;;;;;5.70;1.60;;;;;;;;;;4992383;28;20042;-57
2023/05/16 13:44:18;;;;;;;7.57;1.73;;;;;;;;;;4985209;28;20049;-57
2023/05/16 13:46:46;;;;;;;6.65;1.63;;;;;;;;;;4986045;28;20135;-56
2023/05/16 13:49:14;;;;;;;6.15;1.50;;;;;;;;;;4982473;28;20045;-56
2023/05/16 13:51:42;;;;;;;5.97;2.00;;;;;;;;;;4986848;28;20045;-55
2023/05/16 13:54:10;;;;;;;4.43;1.37;;;;;;;;;;4988994;28;20612;-53
2023/05/16 13:56:38;;;;;;;9.75;1.70;;;;;;;;;;4982024;28;20057;-57
2023/05/16 13:59:07;;;;;;;6.82;1.98;;;;;;;;;;4985749;28;20791;-58
2023/05/16 14:01:38;;;;;;;7.07;1.60;;;;;;;;;;4980876;28;20041;-57
2023/05/16 14:04:06;;;;;;;4.30;1.27;;;;;;;;;;4992190;28;20751;-54
2023/05/16 14:06:35;;;;;;;6.13;1.93;;;;;;;;;;4958798;28;20053;-55
2023/05/16 14:09:03;;;;;;;4.97;1.52;;;;;;;;;;4995833;28;20103;-54
2023/05/16 14:11:31;;;;;;;6.13;1.73;;;;;;;;;;4981708;28;20051;-56
2023/05/16 14:13:58;;;;;;;5.78;2.35;;;;;;;;;;4969753;28;20050;-55
2023/05/16 14:16:26;;;;;;;8.55;1.90;;;;;;;;;;4980094;28;20049;-55
2023/05/16 14:18:56;;;;;;;6.93;1.90;;;;;;;;;;4985411;28;20060;-53
2023/05/16 14:21:23;;;;;;;8.82;2.10;;;;;;;;;;4979509;28;20077;-54
2023/05/16 14:23:51;;;;;;;9.25;1.85;;;;;;;;;;4964515;28;20160;-55
2023/05/16 14:26:21;;;;;;;7.55;1.67;;;;;;;;;;4988667;28;20050;-54
2023/05/16 14:28:49;;;;;;;5.60;1.75;;;;;;;;;;4983909;28;20045;-55
2023/05/16 14:31:17;;;;;;;7.47;2.40;;;;;;;;;;4976527;28;20503;-56
2023/05/16 14:33:45;;;;;;;9.32;1.90;;;;;;;;;;4986429;28;20512;-54
2023/05/16 14:36:14;;;;;;;6.75;1.75;;;;;;;;;;4986572;28;20045;-55
2023/05/16 14:38:43;;;;;;;6.60;1.67;;;;;;;;;;4985066;28;20045;-53
2023/05/16 14:41:11;;;;;;;8.20;1.90;;;;;;;;;;4996089;28;20048;-51
2023/05/16 14:43:38;;;;;;;9.30;1.40;;;;;;;;;;4983257;28;20042;-50
2023/05/16 14:46:06;;;;;;;7.07;1.83;;;;;;;;;;4998832;28;20474;-53
2023/05/16 14:48:34;;;;;;;8.35;2.30;;;;;;;;;;4995558;28;20046;-55
2023/05/16 14:51:04;;;;;;;8.50;1.88;;;;;;;;;;4997216;28;20048;-55
2023/05/16 14:53:34;;;;;;;6.63;1.55;;;;;;;;;;5002536;28;20045;-53
2023/05/16 14:56:05;;;;;;;5.27;1.93;;;;;;;;;;4995976;28;20050;-55